sensor_id;sensor_type;location;lat;lon;timestamp;temperature;humidity
36352;DHT22;22382;44.768;17.206;2023-04-03T00:01:16;8.70;99.90
36352;DHT22;22382;44.768;17.206;2023-04-03T00:03:43;8.70;99.90
36352;DHT22;22382;44.768;17.206;2023-04-03T00:06:11;8.50;99.90
36352;DHT22;22382;44.768;17.206;2023-04-03T00:08:39;8.40;99.40
36352;DHT22;22382;44.768;17.206;2023-04-03T00:11:07;8.20;95.50
36352;DHT22;22382;44.768;17.206;2023-04-03T00:13:36;8.10;96.70
36352;DHT22;22382;44.768;17.206;2023-04-03T00:16:04;8.10;97.40
36352;DHT22;22382;44.768;17.206;2023-04-03T00:18:31;8.10;97.60
36352;DHT22;22382;44.768;17.206;2023-04-03T00:20:58;8.00;99.90
36352;DHT22;22382;44.768;17.206;2023-04-03T00:23:25;8.10;99.90
36352;DHT22;22382;44.768;17.206;2023-04-03T00:25:53;8.10;98.80
36352;DHT22;22382;44.768;17.206;2023-04-03T00:28:20;8.00;96.90
36352;DHT22;22382;44.768;17.206;2023-04-03T00:30:49;8.00;98.50
36352;DHT22;22382;44.768;17.206;2023-04-03T00:33:17;8.00;96.80
36352;DHT22;22382;44.768;17.206;2023-04-03T00:35:44;7.90;98.10
36352;DHT22;22382;44.768;17.206;2023-04-03T00:38:11;7.90;99.50
36352;DHT22;22382;44.768;17.206;2023-04-03T00:40:43;7.90;99.10
36352;DHT22;22382;44.768;17.206;2023-04-03T00:43:14;7.80;98.30
36352;DHT22;22382;44.768;17.206;2023-04-03T00:45:44;7.80;97.00
36352;DHT22;22382;44.768;17.206;2023-04-03T00:48:18;7.70;97.70
36352;DHT22;22382;44.768;17.206;2023-04-03T00:50:47;7.60;99.90
36352;DHT22;22382;44.768;17.206;2023-04-03T00:53:19;7.70;99.90
36352;DHT22;22382;44.768;17.206;2023-04-03T00:55:49;7.70;99.90
36352;DHT22;22382;44.768;17.206;2023-04-03T00:58:20;7.70;99.90
36352;DHT22;22382;44.768;17.206;2023-04-03T01:00:52;7.60;99.90
36352;DHT22;22382;44.768;17.206;2023-04-03T01:03:24;7.60;99.90
36352;DHT22;22382;44.768;17.206;2023-04-03T01:05:52;7.50;99.90
36352;DHT22;22382;44.768;17.206;2023-04-03T01:08:19;7.40;99.90
36352;DHT22;22382;44.768;17.206;2023-04-03T01:10:46;7.30;99.90
36352;DHT22;22382;44.768;17.206;2023-04-03T01:13:27;7.30;99.90
36352;DHT22;22382;44.768;17.206;2023-04-03T01:15:55;7.30;99.90
36352;DHT22;22382;44.768;17.206;2023-04-03T01:18:24;7.30;99.90
36352;DHT22;22382;44.768;17.206;2023-04-03T01:21:05;7.40;97.20
36352;DHT22;22382;44.768;17.206;2023-04-03T01:26:34;7.40;99.90
36352;DHT22;22382;44.768;17.206;2023-04-03T01:29:03;7.30;97.40
36352;DHT22;22382;44.768;17.206;2023-04-03T01:31:52;7.20;97.90
36352;DHT22;22382;44.768;17.206;2023-04-03T01:34:18;7.20;97.40
36352;DHT22;22382;44.768;17.206;2023-04-03T01:36:45;7.30;96.70
36352;DHT22;22382;44.768;17.206;2023-04-03T01:39:13;7.20;94.60
36352;DHT22;22382;44.768;17.206;2023-04-03T01:41:40;7.20;96.40
36352;DHT22;22382;44.768;17.206;2023-04-03T01:44:07;7.20;94.30
36352;DHT22;22382;44.768;17.206;2023-04-03T01:46:34;7.20;94.00
36352;DHT22;22382;44.768;17.206;2023-04-03T01:49:02;7.00;96.40
36352;DHT22;22382;44.768;17.206;2023-04-03T01:51:30;7.00;93.90
36352;DHT22;22382;44.768;17.206;2023-04-03T01:53:57;6.80;93.40
36352;DHT22;22382;44.768;17.206;2023-04-03T01:56:24;6.70;95.50
36352;DHT22;22382;44.768;17.206;2023-04-03T01:58:52;6.80;95.60
36352;DHT22;22382;44.768;17.206;2023-04-03T02:01:19;6.70;93.00
36352;DHT22;22382;44.768;17.206;2023-04-03T02:03:46;6.70;94.00
36352;DHT22;22382;44.768;17.206;2023-04-03T02:06:13;6.60;94.00
36352;DHT22;22382;44.768;17.206;2023-04-03T02:08:40;6.60;94.00
36352;DHT22;22382;44.768;17.206;2023-04-03T02:11:08;6.60;93.80
36352;DHT22;22382;44.768;17.206;2023-04-03T02:13:35;6.60;92.70
36352;DHT22;22382;44.768;17.206;2023-04-03T02:16:10;6.60;91.70
36352;DHT22;22382;44.768;17.206;2023-04-03T02:18:38;6.60;91.80
36352;DHT22;22382;44.768;17.206;2023-04-03T02:21:05;6.60;91.80
36352;DHT22;22382;44.768;17.206;2023-04-03T02:23:33;6.60;91.00
36352;DHT22;22382;44.768;17.206;2023-04-03T02:26:08;6.50;91.90
36352;DHT22;22382;44.768;17.206;2023-04-03T02:28:35;6.60;92.80
36352;DHT22;22382;44.768;17.206;2023-04-03T02:31:03;6.60;91.80
36352;DHT22;22382;44.768;17.206;2023-04-03T02:33:31;6.60;91.50
36352;DHT22;22382;44.768;17.206;2023-04-03T02:35:58;6.60;91.40
36352;DHT22;22382;44.768;17.206;2023-04-03T02:38:26;6.50;90.50
36352;DHT22;22382;44.768;17.206;2023-04-03T02:40:53;6.50;91.40
36352;DHT22;22382;44.768;17.206;2023-04-03T02:43:20;6.40;90.10
36352;DHT22;22382;44.768;17.206;2023-04-03T02:45:47;6.50;90.90
36352;DHT22;22382;44.768;17.206;2023-04-03T02:48:14;6.50;90.40
36352;DHT22;22382;44.768;17.206;2023-04-03T02:50:43;6.50;90.00
36352;DHT22;22382;44.768;17.206;2023-04-03T02:53:10;6.50;90.10
36352;DHT22;22382;44.768;17.206;2023-04-03T02:55:37;6.30;90.00
36352;DHT22;22382;44.768;17.206;2023-04-03T02:58:05;6.40;90.00
36352;DHT22;22382;44.768;17.206;2023-04-03T03:00:35;6.30;89.70
36352;DHT22;22382;44.768;17.206;2023-04-03T03:03:03;6.30;90.40
36352;DHT22;22382;44.768;17.206;2023-04-03T03:05:31;6.30;90.10
36352;DHT22;22382;44.768;17.206;2023-04-03T03:07:58;6.30;89.10
36352;DHT22;22382;44.768;17.206;2023-04-03T03:10:25;6.30;88.60
36352;DHT22;22382;44.768;17.206;2023-04-03T03:12:52;6.20;87.90
36352;DHT22;22382;44.768;17.206;2023-04-03T03:15:19;6.20;89.10
36352;DHT22;22382;44.768;17.206;2023-04-03T03:17:46;6.30;89.30
36352;DHT22;22382;44.768;17.206;2023-04-03T03:20:14;6.30;90.00
36352;DHT22;22382;44.768;17.206;2023-04-03T03:22:42;6.30;89.30
36352;DHT22;22382;44.768;17.206;2023-04-03T03:25:09;6.40;90.00
36352;DHT22;22382;44.768;17.206;2023-04-03T03:27:36;6.40;89.80
36352;DHT22;22382;44.768;17.206;2023-04-03T03:30:04;6.30;88.90
36352;DHT22;22382;44.768;17.206;2023-04-03T03:32:32;6.30;88.10
36352;DHT22;22382;44.768;17.206;2023-04-03T03:34:59;6.20;88.40
36352;DHT22;22382;44.768;17.206;2023-04-03T03:37:27;6.20;89.30
36352;DHT22;22382;44.768;17.206;2023-04-03T03:39:54;6.20;90.50
36352;DHT22;22382;44.768;17.206;2023-04-03T03:42:21;6.20;90.70
36352;DHT22;22382;44.768;17.206;2023-04-03T03:44:49;6.20;91.40
36352;DHT22;22382;44.768;17.206;2023-04-03T03:47:16;6.20;92.60
36352;DHT22;22382;44.768;17.206;2023-04-03T03:49:43;6.20;93.60
36352;DHT22;22382;44.768;17.206;2023-04-03T03:52:10;6.10;96.40
36352;DHT22;22382;44.768;17.206;2023-04-03T03:54:37;6.20;96.90
36352;DHT22;22382;44.768;17.206;2023-04-03T03:57:05;6.20;97.00
36352;DHT22;22382;44.768;17.206;2023-04-03T03:59:32;6.20;97.60
36352;DHT22;22382;44.768;17.206;2023-04-03T04:01:59;6.20;92.60
36352;DHT22;22382;44.768;17.206;2023-04-03T04:04:27;6.20;92.00
36352;DHT22;22382;44.768;17.206;2023-04-03T04:06:54;6.20;92.80
36352;DHT22;22382;44.768;17.206;2023-04-03T04:09:21;6.30;93.00
36352;DHT22;22382;44.768;17.206;2023-04-03T04:11:48;6.20;90.60
36352;DHT22;22382;44.768;17.206;2023-04-03T04:14:15;6.20;91.00
36352;DHT22;22382;44.768;17.206;2023-04-03T04:16:43;6.20;90.50
36352;DHT22;22382;44.768;17.206;2023-04-03T04:19:10;6.10;90.00
36352;DHT22;22382;44.768;17.206;2023-04-03T04:21:38;6.10;90.90
36352;DHT22;22382;44.768;17.206;2023-04-03T04:24:07;6.20;92.10
36352;DHT22;22382;44.768;17.206;2023-04-03T04:26:35;6.20;91.50
36352;DHT22;22382;44.768;17.206;2023-04-03T04:29:02;6.30;91.00
36352;DHT22;22382;44.768;17.206;2023-04-03T04:31:30;6.20;91.80
36352;DHT22;22382;44.768;17.206;2023-04-03T04:33:57;6.30;91.90
36352;DHT22;22382;44.768;17.206;2023-04-03T04:36:24;6.30;91.60
36352;DHT22;22382;44.768;17.206;2023-04-03T04:38:52;6.20;91.10
36352;DHT22;22382;44.768;17.206;2023-04-03T04:41:22;6.20;92.20
36352;DHT22;22382;44.768;17.206;2023-04-03T04:43:51;6.20;91.10
36352;DHT22;22382;44.768;17.206;2023-04-03T04:46:18;6.10;91.20
36352;DHT22;22382;44.768;17.206;2023-04-03T04:48:45;6.10;92.10
36352;DHT22;22382;44.768;17.206;2023-04-03T04:51:13;6.10;92.30
36352;DHT22;22382;44.768;17.206;2023-04-03T04:54:03;6.10;91.90
36352;DHT22;22382;44.768;17.206;2023-04-03T04:56:33;6.10;92.70
36352;DHT22;22382;44.768;17.206;2023-04-03T04:59:01;6.10;92.00
36352;DHT22;22382;44.768;17.206;2023-04-03T05:01:28;6.10;92.80
36352;DHT22;22382;44.768;17.206;2023-04-03T05:03:55;6.10;92.10
36352;DHT22;22382;44.768;17.206;2023-04-03T05:06:22;6.10;93.30
36352;DHT22;22382;44.768;17.206;2023-04-03T05:08:49;6.20;92.40
36352;DHT22;22382;44.768;17.206;2023-04-03T05:11:17;6.10;92.10
36352;DHT22;22382;44.768;17.206;2023-04-03T05:13:44;6.10;92.70
36352;DHT22;22382;44.768;17.206;2023-04-03T05:16:11;6.10;93.30
36352;DHT22;22382;44.768;17.206;2023-04-03T05:18:38;6.10;92.40
36352;DHT22;22382;44.768;17.206;2023-04-03T05:21:05;6.00;92.70
36352;DHT22;22382;44.768;17.206;2023-04-03T05:23:32;6.10;93.80
36352;DHT22;22382;44.768;17.206;2023-04-03T05:25:59;6.10;95.50
36352;DHT22;22382;44.768;17.206;2023-04-03T05:28:26;6.10;94.00
36352;DHT22;22382;44.768;17.206;2023-04-03T05:30:55;6.10;93.20
36352;DHT22;22382;44.768;17.206;2023-04-03T05:33:42;6.10;94.10
36352;DHT22;22382;44.768;17.206;2023-04-03T05:36:10;6.10;92.90
36352;DHT22;22382;44.768;17.206;2023-04-03T05:38:37;6.10;94.10
36352;DHT22;22382;44.768;17.206;2023-04-03T05:41:05;6.10;93.50
36352;DHT22;22382;44.768;17.206;2023-04-03T05:43:32;6.10;93.30
36352;DHT22;22382;44.768;17.206;2023-04-03T05:46:01;6.10;92.90
36352;DHT22;22382;44.768;17.206;2023-04-03T05:48:28;6.00;93.90
36352;DHT22;22382;44.768;17.206;2023-04-03T05:50:55;6.10;93.60
36352;DHT22;22382;44.768;17.206;2023-04-03T05:53:27;6.00;93.60
36352;DHT22;22382;44.768;17.206;2023-04-03T05:55:54;6.10;94.80
36352;DHT22;22382;44.768;17.206;2023-04-03T05:58:21;6.20;94.10
36352;DHT22;22382;44.768;17.206;2023-04-03T06:00:48;6.10;93.70
36352;DHT22;22382;44.768;17.206;2023-04-03T06:03:16;6.10;94.00
36352;DHT22;22382;44.768;17.206;2023-04-03T06:05:44;6.10;94.40
36352;DHT22;22382;44.768;17.206;2023-04-03T06:08:11;6.10;94.50
36352;DHT22;22382;44.768;17.206;2023-04-03T06:10:39;6.10;93.80
36352;DHT22;22382;44.768;17.206;2023-04-03T06:13:06;6.10;94.40
36352;DHT22;22382;44.768;17.206;2023-04-03T06:15:33;6.10;94.20
36352;DHT22;22382;44.768;17.206;2023-04-03T06:18:01;6.10;94.60
36352;DHT22;22382;44.768;17.206;2023-04-03T06:20:28;6.10;94.60
36352;DHT22;22382;44.768;17.206;2023-04-03T06:22:55;6.10;95.30
36352;DHT22;22382;44.768;17.206;2023-04-03T06:25:22;6.20;95.80
36352;DHT22;22382;44.768;17.206;2023-04-03T06:27:50;6.20;94.80
36352;DHT22;22382;44.768;17.206;2023-04-03T06:30:17;6.20;97.00
36352;DHT22;22382;44.768;17.206;2023-04-03T06:32:44;6.30;96.00
36352;DHT22;22382;44.768;17.206;2023-04-03T06:35:11;6.40;95.30
36352;DHT22;22382;44.768;17.206;2023-04-03T06:37:38;6.40;95.70
36352;DHT22;22382;44.768;17.206;2023-04-03T06:40:06;6.40;96.00
36352;DHT22;22382;44.768;17.206;2023-04-03T06:42:33;6.40;97.00
36352;DHT22;22382;44.768;17.206;2023-04-03T06:45:00;6.40;96.60
36352;DHT22;22382;44.768;17.206;2023-04-03T06:47:27;6.30;94.70
36352;DHT22;22382;44.768;17.206;2023-04-03T06:49:55;6.40;94.30
36352;DHT22;22382;44.768;17.206;2023-04-03T06:52:23;6.40;94.50
36352;DHT22;22382;44.768;17.206;2023-04-03T06:54:50;6.50;95.50
36352;DHT22;22382;44.768;17.206;2023-04-03T06:57:24;6.50;94.10
36352;DHT22;22382;44.768;17.206;2023-04-03T06:59:52;6.50;93.60
36352;DHT22;22382;44.768;17.206;2023-04-03T07:02:19;6.60;94.40
36352;DHT22;22382;44.768;17.206;2023-04-03T07:04:47;6.70;95.00
36352;DHT22;22382;44.768;17.206;2023-04-03T07:07:15;6.80;94.10
36352;DHT22;22382;44.768;17.206;2023-04-03T07:09:43;6.70;93.80
36352;DHT22;22382;44.768;17.206;2023-04-03T07:12:11;6.80;93.80
36352;DHT22;22382;44.768;17.206;2023-04-03T07:14:38;6.70;94.20
36352;DHT22;22382;44.768;17.206;2023-04-03T07:17:05;6.40;99.40
36352;DHT22;22382;44.768;17.206;2023-04-03T07:19:32;6.40;99.90
36352;DHT22;22382;44.768;17.206;2023-04-03T07:22:00;6.40;99.90
36352;DHT22;22382;44.768;17.206;2023-04-03T07:24:27;6.40;99.90
36352;DHT22;22382;44.768;17.206;2023-04-03T07:26:55;6.30;99.90
36352;DHT22;22382;44.768;17.206;2023-04-03T07:29:25;6.40;99.90
36352;DHT22;22382;44.768;17.206;2023-04-03T07:31:52;6.30;99.90
36352;DHT22;22382;44.768;17.206;2023-04-03T07:34:20;6.40;99.90
36352;DHT22;22382;44.768;17.206;2023-04-03T07:36:48;6.50;99.90
36352;DHT22;22382;44.768;17.206;2023-04-03T07:39:17;6.60;99.90
36352;DHT22;22382;44.768;17.206;2023-04-03T07:41:45;6.70;99.90
36352;DHT22;22382;44.768;17.206;2023-04-03T07:44:12;6.70;99.90
36352;DHT22;22382;44.768;17.206;2023-04-03T07:46:39;6.60;99.90
36352;DHT22;22382;44.768;17.206;2023-04-03T07:49:07;6.50;99.90
36352;DHT22;22382;44.768;17.206;2023-04-03T07:51:34;6.50;99.90
36352;DHT22;22382;44.768;17.206;2023-04-03T07:54:02;6.50;99.90
36352;DHT22;22382;44.768;17.206;2023-04-03T07:56:29;6.50;99.90
36352;DHT22;22382;44.768;17.206;2023-04-03T07:58:56;6.50;99.90
36352;DHT22;22382;44.768;17.206;2023-04-03T08:01:23;6.50;99.90
36352;DHT22;22382;44.768;17.206;2023-04-03T08:03:51;6.50;99.90
36352;DHT22;22382;44.768;17.206;2023-04-03T08:06:18;6.60;99.90
36352;DHT22;22382;44.768;17.206;2023-04-03T08:08:58;6.60;99.90
36352;DHT22;22382;44.768;17.206;2023-04-03T08:11:26;6.70;99.90
36352;DHT22;22382;44.768;17.206;2023-04-03T08:13:53;6.70;99.90
36352;DHT22;22382;44.768;17.206;2023-04-03T08:16:22;6.60;99.90
36352;DHT22;22382;44.768;17.206;2023-04-03T08:18:50;6.60;99.90
36352;DHT22;22382;44.768;17.206;2023-04-03T08:21:18;6.60;99.90
36352;DHT22;22382;44.768;17.206;2023-04-03T08:23:48;6.60;99.90
36352;DHT22;22382;44.768;17.206;2023-04-03T08:26:19;6.70;99.90
36352;DHT22;22382;44.768;17.206;2023-04-03T08:28:48;6.70;99.90
36352;DHT22;22382;44.768;17.206;2023-04-03T08:31:17;6.80;99.90
36352;DHT22;22382;44.768;17.206;2023-04-03T08:33:46;6.80;99.90
36352;DHT22;22382;44.768;17.206;2023-04-03T08:36:22;6.90;99.90
36352;DHT22;22382;44.768;17.206;2023-04-03T08:38:51;6.90;99.90
36352;DHT22;22382;44.768;17.206;2023-04-03T08:41:39;6.90;99.90
36352;DHT22;22382;44.768;17.206;2023-04-03T08:47:01;6.90;99.90
36352;DHT22;22382;44.768;17.206;2023-04-03T08:49:48;6.90;99.90
36352;DHT22;22382;44.768;17.206;2023-04-03T08:55:14;6.90;99.90
36352;DHT22;22382;44.768;17.206;2023-04-03T08:57:44;6.90;99.90
36352;DHT22;22382;44.768;17.206;2023-04-03T09:00:20;7.10;99.90
36352;DHT22;22382;44.768;17.206;2023-04-03T09:02:53;7.10;99.90
36352;DHT22;22382;44.768;17.206;2023-04-03T09:05:42;7.10;99.90
36352;DHT22;22382;44.768;17.206;2023-04-03T09:16:28;7.20;99.90
36352;DHT22;22382;44.768;17.206;2023-04-03T09:19:08;7.10;99.90
36352;DHT22;22382;44.768;17.206;2023-04-03T09:21:40;7.30;99.90
36352;DHT22;22382;44.768;17.206;2023-04-03T09:24:12;7.50;99.90
36352;DHT22;22382;44.768;17.206;2023-04-03T09:26:59;7.60;98.60
36352;DHT22;22382;44.768;17.206;2023-04-03T09:29:29;7.50;99.90
36352;DHT22;22382;44.768;17.206;2023-04-03T09:32:00;7.70;99.90
36352;DHT22;22382;44.768;17.206;2023-04-03T09:34:32;7.90;99.20
36352;DHT22;22382;44.768;17.206;2023-04-03T09:37:04;7.90;98.50
36352;DHT22;22382;44.768;17.206;2023-04-03T09:39:52;7.90;97.50
36352;DHT22;22382;44.768;17.206;2023-04-03T09:42:25;7.90;99.20
36352;DHT22;22382;44.768;17.206;2023-04-03T09:44:57;7.90;97.10
36352;DHT22;22382;44.768;17.206;2023-04-03T09:47:32;7.80;97.80
36352;DHT22;22382;44.768;17.206;2023-04-03T09:52:42;7.60;98.70
36352;DHT22;22382;44.768;17.206;2023-04-03T09:55:24;7.60;97.00
36352;DHT22;22382;44.768;17.206;2023-04-03T09:58:00;7.50;99.50
36352;DHT22;22382;44.768;17.206;2023-04-03T10:03:00;7.60;99.70
36352;DHT22;22382;44.768;17.206;2023-04-03T10:10:45;7.80;99.90
36352;DHT22;22382;44.768;17.206;2023-04-03T10:13:18;7.90;97.60
36352;DHT22;22382;44.768;17.206;2023-04-03T10:16:00;8.00;99.00
36352;DHT22;22382;44.768;17.206;2023-04-03T10:18:31;8.10;98.00
36352;DHT22;22382;44.768;17.206;2023-04-03T10:21:08;8.10;95.10
36352;DHT22;22382;44.768;17.206;2023-04-03T10:24:06;8.00;94.90
36352;DHT22;22382;44.768;17.206;2023-04-03T10:29:40;7.80;96.40
36352;DHT22;22382;44.768;17.206;2023-04-03T10:44:15;7.70;95.70
36352;DHT22;22382;44.768;17.206;2023-04-03T10:47:09;7.60;98.50
36352;DHT22;22382;44.768;17.206;2023-04-03T10:49:56;7.80;98.60
36352;DHT22;22382;44.768;17.206;2023-04-03T10:52:49;7.80;97.90
36352;DHT22;22382;44.768;17.206;2023-04-03T10:57:55;8.00;94.20
36352;DHT22;22382;44.768;17.206;2023-04-03T11:00:50;7.90;94.30
36352;DHT22;22382;44.768;17.206;2023-04-03T11:03:41;7.90;94.10
36352;DHT22;22382;44.768;17.206;2023-04-03T11:06:13;8.00;94.20
36352;DHT22;22382;44.768;17.206;2023-04-03T11:09:01;8.10;95.90
36352;DHT22;22382;44.768;17.206;2023-04-03T11:11:33;8.10;93.60
36352;DHT22;22382;44.768;17.206;2023-04-03T11:14:08;8.20;95.10
36352;DHT22;22382;44.768;17.206;2023-04-03T11:16:41;8.00;94.10
36352;DHT22;22382;44.768;17.206;2023-04-03T11:22:27;8.20;96.10
36352;DHT22;22382;44.768;17.206;2023-04-03T11:25:32;8.10;97.20
36352;DHT22;22382;44.768;17.206;2023-04-03T11:28:06;7.90;99.90
36352;DHT22;22382;44.768;17.206;2023-04-03T11:36:12;7.40;99.90
36352;DHT22;22382;44.768;17.206;2023-04-03T11:38:59;7.40;99.90
36352;DHT22;22382;44.768;17.206;2023-04-03T11:41:31;7.40;99.90
36352;DHT22;22382;44.768;17.206;2023-04-03T11:44:05;7.40;99.90
36352;DHT22;22382;44.768;17.206;2023-04-03T11:46:52;7.50;99.90
36352;DHT22;22382;44.768;17.206;2023-04-03T11:50:01;7.60;99.90
36352;DHT22;22382;44.768;17.206;2023-04-03T12:01:01;7.80;99.90
36352;DHT22;22382;44.768;17.206;2023-04-03T12:08:53;7.80;99.90
36352;DHT22;22382;44.768;17.206;2023-04-03T12:11:28;7.90;99.90
36352;DHT22;22382;44.768;17.206;2023-04-03T12:22:09;7.70;99.90
36352;DHT22;22382;44.768;17.206;2023-04-03T12:24:43;7.60;99.90
36352;DHT22;22382;44.768;17.206;2023-04-03T12:35:49;7.70;99.90
36352;DHT22;22382;44.768;17.206;2023-04-03T12:40:58;7.60;99.90
36352;DHT22;22382;44.768;17.206;2023-04-03T12:46:24;7.60;99.90
36352;DHT22;22382;44.768;17.206;2023-04-03T12:48:57;7.60;99.90
36352;DHT22;22382;44.768;17.206;2023-04-03T12:51:40;7.70;99.90
36352;DHT22;22382;44.768;17.206;2023-04-03T12:56:43;7.30;99.90
36352;DHT22;22382;44.768;17.206;2023-04-03T12:59:22;7.30;99.90
36352;DHT22;22382;44.768;17.206;2023-04-03T13:01:58;7.50;99.90
36352;DHT22;22382;44.768;17.206;2023-04-03T13:04:27;7.60;99.90
36352;DHT22;22382;44.768;17.206;2023-04-03T13:07:23;7.40;99.90
36352;DHT22;22382;44.768;17.206;2023-04-03T13:10:00;7.20;99.90
36352;DHT22;22382;44.768;17.206;2023-04-03T13:12:27;7.30;99.90
36352;DHT22;22382;44.768;17.206;2023-04-03T13:15:02;7.50;99.90
36352;DHT22;22382;44.768;17.206;2023-04-03T13:17:39;7.80;99.90
36352;DHT22;22382;44.768;17.206;2023-04-03T13:20:20;7.90;99.90
36352;DHT22;22382;44.768;17.206;2023-04-03T13:25:21;8.40;99.90
36352;DHT22;22382;44.768;17.206;2023-04-03T13:27:49;8.50;99.90
36352;DHT22;22382;44.768;17.206;2023-04-03T13:30:32;8.60;99.90
36352;DHT22;22382;44.768;17.206;2023-04-03T13:33:02;8.50;99.90
36352;DHT22;22382;44.768;17.206;2023-04-03T13:35:37;8.50;99.90
36352;DHT22;22382;44.768;17.206;2023-04-03T13:38:22;8.60;99.90
36352;DHT22;22382;44.768;17.206;2023-04-03T13:41:01;8.50;99.90
36352;DHT22;22382;44.768;17.206;2023-04-03T13:43:33;8.20;99.90
36352;DHT22;22382;44.768;17.206;2023-04-03T13:48:43;8.10;99.90
36352;DHT22;22382;44.768;17.206;2023-04-03T13:53:46;8.20;99.90
36352;DHT22;22382;44.768;17.206;2023-04-03T13:56:36;8.40;99.90
36352;DHT22;22382;44.768;17.206;2023-04-03T14:01:52;8.50;99.90
36352;DHT22;22382;44.768;17.206;2023-04-03T14:04:26;8.60;99.90
36352;DHT22;22382;44.768;17.206;2023-04-03T14:06:55;8.60;99.90
36352;DHT22;22382;44.768;17.206;2023-04-03T14:09:24;8.70;99.90
36352;DHT22;22382;44.768;17.206;2023-04-03T14:11:54;8.70;99.90
36352;DHT22;22382;44.768;17.206;2023-04-03T14:14:30;8.60;99.00
36352;DHT22;22382;44.768;17.206;2023-04-03T14:17:01;8.50;99.90
36352;DHT22;22382;44.768;17.206;2023-04-03T14:19:33;8.50;99.90
36352;DHT22;22382;44.768;17.206;2023-04-03T14:22:15;8.50;99.90
36352;DHT22;22382;44.768;17.206;2023-04-03T14:24:43;8.40;99.90
36352;DHT22;22382;44.768;17.206;2023-04-03T14:27:22;8.40;99.90
36352;DHT22;22382;44.768;17.206;2023-04-03T14:29:50;8.30;99.90
36352;DHT22;22382;44.768;17.206;2023-04-03T14:32:20;8.10;99.90
36352;DHT22;22382;44.768;17.206;2023-04-03T14:34:48;8.00;99.90
36352;DHT22;22382;44.768;17.206;2023-04-03T14:37:25;7.90;99.90
36352;DHT22;22382;44.768;17.206;2023-04-03T14:39:53;7.90;99.90
36352;DHT22;22382;44.768;17.206;2023-04-03T14:42:24;7.80;99.90
36352;DHT22;22382;44.768;17.206;2023-04-03T14:44:52;7.90;99.90
36352;DHT22;22382;44.768;17.206;2023-04-03T14:47:23;7.90;99.90
36352;DHT22;22382;44.768;17.206;2023-04-03T14:49:59;7.80;99.90
36352;DHT22;22382;44.768;17.206;2023-04-03T14:52:30;7.70;99.90
36352;DHT22;22382;44.768;17.206;2023-04-03T14:54:58;7.60;99.90
36352;DHT22;22382;44.768;17.206;2023-04-03T14:57:27;7.60;99.90
36352;DHT22;22382;44.768;17.206;2023-04-03T14:59:55;7.60;99.90
36352;DHT22;22382;44.768;17.206;2023-04-03T15:02:30;7.60;99.90
36352;DHT22;22382;44.768;17.206;2023-04-03T15:05:00;7.60;99.90
36352;DHT22;22382;44.768;17.206;2023-04-03T15:07:32;7.50;99.90
36352;DHT22;22382;44.768;17.206;2023-04-03T15:10:21;7.60;99.90
36352;DHT22;22382;44.768;17.206;2023-04-03T15:12:50;7.70;99.90
36352;DHT22;22382;44.768;17.206;2023-04-03T15:15:20;7.60;99.90
36352;DHT22;22382;44.768;17.206;2023-04-03T15:17:51;7.60;99.90
36352;DHT22;22382;44.768;17.206;2023-04-03T15:20:23;7.60;99.90
36352;DHT22;22382;44.768;17.206;2023-04-03T15:22:51;7.70;99.90
36352;DHT22;22382;44.768;17.206;2023-04-03T15:25:18;7.70;99.90
36352;DHT22;22382;44.768;17.206;2023-04-03T15:27:45;7.70;99.90
36352;DHT22;22382;44.768;17.206;2023-04-03T15:30:18;7.70;99.90
36352;DHT22;22382;44.768;17.206;2023-04-03T15:32:46;7.70;99.90
36352;DHT22;22382;44.768;17.206;2023-04-03T15:35:13;7.70;99.90
36352;DHT22;22382;44.768;17.206;2023-04-03T15:37:41;7.70;99.90
36352;DHT22;22382;44.768;17.206;2023-04-03T15:40:09;7.70;99.90
36352;DHT22;22382;44.768;17.206;2023-04-03T15:42:37;7.60;99.90
36352;DHT22;22382;44.768;17.206;2023-04-03T15:45:05;7.70;99.90
36352;DHT22;22382;44.768;17.206;2023-04-03T15:47:32;7.70;99.90
36352;DHT22;22382;44.768;17.206;2023-04-03T15:50:00;7.70;99.90
36352;DHT22;22382;44.768;17.206;2023-04-03T15:52:27;7.70;99.90
36352;DHT22;22382;44.768;17.206;2023-04-03T15:54:54;7.60;99.90
36352;DHT22;22382;44.768;17.206;2023-04-03T15:57:21;7.60;99.90
36352;DHT22;22382;44.768;17.206;2023-04-03T15:59:53;7.60;99.90
36352;DHT22;22382;44.768;17.206;2023-04-03T16:02:20;7.60;99.90
36352;DHT22;22382;44.768;17.206;2023-04-03T16:04:48;7.60;99.90
36352;DHT22;22382;44.768;17.206;2023-04-03T16:07:16;7.60;99.90
36352;DHT22;22382;44.768;17.206;2023-04-03T16:09:43;7.60;99.90
36352;DHT22;22382;44.768;17.206;2023-04-03T16:12:10;7.60;99.90
36352;DHT22;22382;44.768;17.206;2023-04-03T16:14:39;7.60;99.90
36352;DHT22;22382;44.768;17.206;2023-04-03T16:17:06;7.60;99.90
36352;DHT22;22382;44.768;17.206;2023-04-03T16:19:34;7.60;99.90
36352;DHT22;22382;44.768;17.206;2023-04-03T16:22:01;7.60;99.90
36352;DHT22;22382;44.768;17.206;2023-04-03T16:24:29;7.60;99.90
36352;DHT22;22382;44.768;17.206;2023-04-03T16:26:56;7.60;99.90
36352;DHT22;22382;44.768;17.206;2023-04-03T16:29:23;7.60;99.90
36352;DHT22;22382;44.768;17.206;2023-04-03T16:31:51;7.50;99.90
36352;DHT22;22382;44.768;17.206;2023-04-03T16:34:18;7.50;99.90
36352;DHT22;22382;44.768;17.206;2023-04-03T16:36:46;7.50;99.90
36352;DHT22;22382;44.768;17.206;2023-04-03T16:39:13;7.50;99.90
36352;DHT22;22382;44.768;17.206;2023-04-03T16:41:40;7.50;99.90
36352;DHT22;22382;44.768;17.206;2023-04-03T16:44:07;7.50;99.90
36352;DHT22;22382;44.768;17.206;2023-04-03T16:46:34;7.50;99.90
36352;DHT22;22382;44.768;17.206;2023-04-03T16:49:02;7.40;99.90
36352;DHT22;22382;44.768;17.206;2023-04-03T16:51:29;7.40;99.90
36352;DHT22;22382;44.768;17.206;2023-04-03T16:53:58;7.40;99.90
36352;DHT22;22382;44.768;17.206;2023-04-03T16:56:26;7.40;99.90
36352;DHT22;22382;44.768;17.206;2023-04-03T16:58:55;7.30;99.90
36352;DHT22;22382;44.768;17.206;2023-04-03T17:01:23;7.30;99.90
36352;DHT22;22382;44.768;17.206;2023-04-03T17:03:51;7.30;99.90
36352;DHT22;22382;44.768;17.206;2023-04-03T17:06:20;7.30;99.90
36352;DHT22;22382;44.768;17.206;2023-04-03T17:08:50;7.30;99.90
36352;DHT22;22382;44.768;17.206;2023-04-03T17:11:18;7.20;99.90
36352;DHT22;22382;44.768;17.206;2023-04-03T17:13:47;7.20;99.90
36352;DHT22;22382;44.768;17.206;2023-04-03T17:16:15;7.20;99.90
36352;DHT22;22382;44.768;17.206;2023-04-03T17:18:44;7.20;99.90
36352;DHT22;22382;44.768;17.206;2023-04-03T17:21:13;7.20;99.90
36352;DHT22;22382;44.768;17.206;2023-04-03T17:23:43;7.20;99.90
36352;DHT22;22382;44.768;17.206;2023-04-03T17:26:11;7.20;99.90
36352;DHT22;22382;44.768;17.206;2023-04-03T17:28:39;7.20;99.90
36352;DHT22;22382;44.768;17.206;2023-04-03T17:31:09;7.10;99.90
36352;DHT22;22382;44.768;17.206;2023-04-03T17:33:37;7.10;99.90